Rapid City, SD

10:13 PM MST on December 20, 2014 (GMT -0700)
Rapid Valley | Change Station
CLOSE
Current Station
Personal Weather Station
Location: Rapid City, SD
Elevation: 3176 ft
Nearby Weather Stations

Elev 3176 ft 44.07 °N, 103.16 °W | Updated 5 minutes ago

Mostly Cloudy
Mostly Cloudy
32.8 °F
Feels Like 33 °F
N
0.0
Wind Variable Wind from NE

Today
High -- | Low -- °F
--% Chance of Precip.
Yesterday
High -- | Low -- °F
Precip. -- in
7:24 AM 4:16 PM
Waning Crescent, 1% visible
Pressure 29.85 in
Visibility 10.0 miles
Clouds Clear
Windchill 33 °F
Dew Point 26 °F
Humidity 76%
Rainfall 0.00 in
Snow Depth Not available.
UV 0.0 out of 12
Pollen .10 out of 12
Air Quality Not available.
Flu Activity Not available.
METAR KRAP 210452Z 00000KT 10SM CLR 01/M03 A2979 RMK AO2 SLP107 T00061033

More Conditions Fewer Conditions

Pressure 29.85 in
Visibility 10.0 miles
Clouds Clear
Windchill 33 °F
Dew Point 26 °F
Humidity 76%
Rainfall 0.00 in
Snow Depth Not available.
UV 0.0 out of 12
Pollen .10 out of 12
Air Quality Not available.
Flu Activity Not available.
METAR KRAP 210452Z 00000KT 10SM CLR 01/M03 A2979 RMK AO2 SLP107 T00061033

More Conditions Fewer Conditions

10-Day Weather Forecast

Almanac

Astronomy

Dec. 20, 2014 Rise Set
Actual Time
Civil Twilight
Nautical Twilight
Astronomical Twilight
Moon
Length of Visible Light
Length of Day
Tomorrow will be .
, % of the Moon is Illuminated

Today's Extremes

State Highs State Lows

Community

WunderPhotos

Upload Photos

1,779,358 photos uploaded!

WunderBlogs® & News

Nearby

Air Quality

  Air Quality AQ Index Pollutant
Not available.

Snow Depth

Station Depth Elevation

Earthquake Activity

City Distance Mag. Time & Date
Minimum magnitude displayed is 2.5.

Coastal Water Temperatures

Place Temperature

Nearby Weather Stations